Skip Navigation LinksHome page > Weather > Current weather Skip Navigation Links

Current Weather

Unknown weather station ZSPD

For information only: do not use for flight planning or navigation.
Latest weather
Observation time Thursday, November 21, 2019 10:00 PM UTC
Local time Thursday, November 21, 2019 10:28 PM UTC
Flight conditions Marginal Visual Meteorological Conditions
Winds
Wind direction North (10°)
Wind speed 7 mph
Visibility 6.2 mi.
Sky condition
Ceiling 1,600 ft. broken clouds
Cloud layer broken clouds 1,600 ft.
Temperature 63°F
Dewpoint 59°F
Altimeter 30.18 in.Hg
Derived measurements
Relative humidity 88%
Density altitude 176 ft.
Remarks
No significant changes expected in the next two hours.
METAR ZSPD 212200Z 01003MPS 9999 BKN016 17/15 Q1022 NOSIG

Settings

Location code

InnerDrive.Weather 4.0.6770.0 Release CLR 4.0.30319.42000
Copyright ©2018 Inner Drive Technology. All rights reserved. Portions Copyright ©1986-2018 David Braverman.

Find weather

Site navigation


Skip Navigation Links

Place info

Page info

PayPal - The safer, easier way to pay online!

Return home.

Copyright ©2019 Inner Drive Technology. Purveyors of fine, hand-crafted computer software. Page printed 2019-11-21T22:28:40 UTC.